createdAt,value
2022-10-06T00:02:11.537Z,100979.14
2022-10-06T00:04:44.827Z,100984.20
2022-10-06T00:07:17.186Z,100983.39
2022-10-06T00:09:48.919Z,100983.64
2022-10-06T00:12:20.533Z,100983.95
2022-10-06T00:14:54.531Z,100982.83
2022-10-06T00:17:26.108Z,100986.05
2022-10-06T00:19:57.625Z,100981.48
2022-10-06T00:22:33.848Z,100986.27
2022-10-06T00:25:07.701Z,100982.56
2022-10-06T00:27:41.005Z,100983.92
2022-10-06T00:30:23.021Z,100985.32
2022-10-06T00:32:57.418Z,100984.90
2022-10-06T00:35:32.611Z,100986.02
2022-10-06T00:38:04.698Z,100987.12
2022-10-06T00:40:39.838Z,100988.73
2022-10-06T00:43:42.093Z,100990.78
2022-10-06T00:46:17.912Z,100991.93
2022-10-06T00:48:54.012Z,100997.02
2022-10-06T00:51:28.931Z,100998.18
2022-10-06T00:54:01.831Z,100995.25
2022-10-06T00:56:34.818Z,100994.14
2022-10-06T00:59:06.868Z,100993.34
2022-10-06T01:01:42.958Z,100997.08
2022-10-06T01:04:17.928Z,101003.98
2022-10-06T01:06:54.064Z,101004.55
2022-10-06T01:09:26.655Z,101007.16
2022-10-06T01:12:02.552Z,101006.95
2022-10-06T01:14:35.239Z,101008.38
2022-10-06T01:17:11.571Z,101008.95
2022-10-06T01:19:50.563Z,101009.42
2022-10-06T01:22:28.641Z,101012.93
2022-10-06T01:25:00.471Z,101013.02
2022-10-06T01:27:35.078Z,101015.52
2022-10-06T01:30:09.755Z,101017.55
2022-10-06T01:32:46.666Z,101020.64
2022-10-06T01:35:18.416Z,101021.02
2022-10-06T01:37:50.047Z,101023.27
2022-10-06T01:40:21.653Z,101024.92
2022-10-06T01:42:55.684Z,101024.48
2022-10-06T01:45:27.251Z,101023.92
2022-10-06T01:48:00.054Z,101024.90
2022-10-06T01:50:31.669Z,101034.36
2022-10-06T01:53:07.337Z,101030.95
2022-10-06T01:55:38.928Z,101035.34
2022-10-06T01:58:10.953Z,101040.39
2022-10-06T02:00:43.024Z,101044.23
2022-10-06T02:03:16.315Z,101041.77
2022-10-06T02:05:47.873Z,101044.50
2022-10-06T02:08:19.496Z,101047.55
2022-10-06T02:10:51.161Z,101052.75
2022-10-06T02:13:25.617Z,101056.10
2022-10-06T02:15:59.506Z,101061.39
2022-10-06T02:18:31.802Z,101066.97
2022-10-06T02:21:04.537Z,101068.61
2022-10-06T02:23:38.810Z,101069.91
2022-10-06T02:26:10.794Z,101068.26
2022-10-06T02:28:44.220Z,101072.90
2022-10-06T02:31:17.135Z,101073.27
2022-10-06T02:33:53.328Z,101073.33
2022-10-06T02:36:24.796Z,101076.23
2022-10-06T02:38:57.553Z,101072.89
2022-10-06T02:41:29.323Z,101074.43
2022-10-06T02:44:02.572Z,101081.73
2022-10-06T02:46:37.370Z,101083.13
2022-10-06T02:49:14.741Z,101084.36
2022-10-06T02:51:46.450Z,101089.02
2022-10-06T02:54:18.817Z,101093.63
2022-10-06T02:56:51.258Z,101093.65
2022-10-06T02:59:22.834Z,101095.37
2022-10-06T03:01:54.953Z,101098.77
2022-10-06T03:04:27.534Z,101099.36
2022-10-06T03:06:59.159Z,101099.92
2022-10-06T03:09:30.879Z,101102.43
2022-10-06T03:12:02.423Z,101105.36
2022-10-06T03:14:34.078Z,101110.04
2022-10-06T03:17:05.680Z,101115.39
2022-10-06T03:19:37.335Z,101117.53
2022-10-06T03:22:09.006Z,101115.70
2022-10-06T03:24:41.355Z,101120.15
2022-10-06T03:27:12.955Z,101122.17
2022-10-06T03:29:46.696Z,101118.17
2022-10-06T03:32:18.342Z,101121.17
2022-10-06T03:34:51.653Z,101117.33
2022-10-06T03:37:23.317Z,101113.48
2022-10-06T03:39:55.718Z,101118.41
2022-10-06T03:42:27.754Z,101125.48
2022-10-06T03:45:00.204Z,101129.60
2022-10-06T03:47:33.398Z,101140.65
2022-10-06T03:50:11.991Z,101140.52
2022-10-06T03:52:43.555Z,101138.44
2022-10-06T03:55:15.298Z,101142.65
2022-10-06T03:57:46.858Z,101147.67
2022-10-06T04:00:21.462Z,101147.65
2022-10-06T04:02:53.543Z,101154.73
2022-10-06T04:05:26.350Z,101156.05
2022-10-06T04:07:57.907Z,101161.06
2022-10-06T04:10:40.917Z,101161.95
2022-10-06T04:13:12.513Z,101163.52
2022-10-06T04:15:44.098Z,101169.16
2022-10-06T04:18:16.786Z,101167.48
2022-10-06T04:20:50.807Z,101167.54
2022-10-06T04:23:23.365Z,101170.23
2022-10-06T04:26:02.826Z,101170.86
2022-10-06T04:28:34.879Z,101175.03
2022-10-06T04:31:12.511Z,101173.96
2022-10-06T04:33:45.885Z,101174.58
2022-10-06T04:36:23.040Z,101179.77
2022-10-06T04:38:56.399Z,101184.39
2022-10-06T04:41:31.810Z,101185.09
2022-10-06T04:44:04.062Z,101188.59
2022-10-06T04:46:44.961Z,101190.29
2022-10-06T04:49:20.239Z,101194.07
2022-10-06T04:51:53.114Z,101192.70
2022-10-06T04:54:24.710Z,101196.14
2022-10-06T04:56:56.822Z,101196.34
2022-10-06T04:59:42.715Z,101197.92
2022-10-06T05:02:14.453Z,101200.29
2022-10-06T05:04:46.072Z,101204.66
2022-10-06T05:07:18.039Z,101210.98
2022-10-06T05:09:50.076Z,101215.02
2022-10-06T05:12:23.970Z,101215.68
2022-10-06T05:14:56.389Z,101221.45
2022-10-06T05:17:28.269Z,101228.92
2022-10-06T05:20:00.823Z,101234.18
2022-10-06T05:22:32.555Z,101236.09
2022-10-06T05:25:04.234Z,101244.56
2022-10-06T05:27:36.151Z,101245.05
2022-10-06T05:30:11.884Z,101247.02
2022-10-06T05:32:46.448Z,101255.10
2022-10-06T05:35:19.387Z,101254.18
2022-10-06T05:37:56.897Z,101251.88
2022-10-06T05:40:28.467Z,101254.48
2022-10-06T05:43:00.926Z,101259.84
2022-10-06T05:45:32.549Z,101265.06
2022-10-06T05:48:04.278Z,101266.42
2022-10-06T05:50:36.108Z,101272.13
2022-10-06T05:53:10.855Z,101272.86
2022-10-06T05:55:44.248Z,101275.71
2022-10-06T05:58:18.615Z,101278.30
2022-10-06T06:00:50.277Z,101283.10
2022-10-06T06:03:21.953Z,101285.98
2022-10-06T06:05:53.540Z,101291.11
2022-10-06T06:08:25.199Z,101295.47
2022-10-06T06:10:56.765Z,101301.63
2022-10-06T06:13:28.450Z,101312.20
2022-10-06T06:16:04.519Z,101316.02
2022-10-06T06:18:37.888Z,101321.99
2022-10-06T06:21:11.690Z,101321.86
2022-10-06T06:23:46.648Z,101331.09
2022-10-06T06:26:19.724Z,101341.89
2022-10-06T06:28:51.791Z,101348.00
2022-10-06T06:31:26.744Z,101351.62
2022-10-06T06:34:00.897Z,101359.27
2022-10-06T06:36:35.855Z,101365.55
2022-10-06T06:39:10.610Z,101370.84
2022-10-06T06:41:44.968Z,101383.45
2022-10-06T06:44:17.028Z,101391.36
2022-10-06T06:46:49.454Z,101399.61
2022-10-06T06:49:22.145Z,101409.05
2022-10-06T06:51:54.627Z,101409.83
2022-10-06T06:54:27.413Z,101417.05
2022-10-06T06:56:59.960Z,101422.64
2022-10-06T06:59:34.174Z,101426.33
2022-10-06T07:02:05.808Z,101429.17
2022-10-06T07:04:37.523Z,101433.02
2022-10-06T07:07:09.874Z,101441.71
2022-10-06T07:09:41.584Z,101445.06
2022-10-06T07:12:13.169Z,101444.46
2022-10-06T07:14:58.765Z,101441.00
2022-10-06T07:17:47.814Z,101446.30
2022-10-06T07:20:41.813Z,101449.02
2022-10-06T07:23:36.644Z,101455.20
2022-10-06T07:26:08.426Z,101454.94
2022-10-06T07:28:42.503Z,101460.73
2022-10-06T07:31:15.429Z,101463.11
2022-10-06T07:33:47.305Z,101470.41
2022-10-06T07:36:18.990Z,101475.55
2022-10-06T07:38:50.537Z,101484.21
2022-10-06T07:41:22.300Z,101485.48
2022-10-06T07:43:54.729Z,101489.25
2022-10-06T07:46:27.028Z,101494.61
2022-10-06T07:48:59.169Z,101495.48
2022-10-06T07:51:44.069Z,101503.61
2022-10-06T07:54:27.534Z,101510.62
2022-10-06T07:57:02.029Z,101514.90
2022-10-06T07:59:34.863Z,101514.70
2022-10-06T08:02:06.690Z,101525.56
2022-10-06T08:04:38.321Z,101538.96
2022-10-06T08:07:10.665Z,101543.30
2022-10-06T08:09:42.418Z,101544.79
2022-10-06T08:12:31.363Z,101551.05
2022-10-06T08:15:07.058Z,101560.20
2022-10-06T08:17:39.837Z,101565.30
2022-10-06T08:20:14.133Z,101565.63
2022-10-06T08:22:50.380Z,101567.84
2022-10-06T08:25:22.095Z,101566.36
2022-10-06T08:27:53.888Z,101579.62
2022-10-06T08:30:34.606Z,101583.61
2022-10-06T08:33:13.629Z,101584.23
2022-10-06T08:35:45.332Z,101589.89
2022-10-06T08:38:16.980Z,101590.35
2022-10-06T08:40:49.692Z,101591.95
2022-10-06T08:43:26.115Z,101588.38
2022-10-06T08:46:02.945Z,101592.84
2022-10-06T08:48:38.879Z,101597.02
2022-10-06T08:51:26.739Z,101604.96
2022-10-06T08:54:08.523Z,101615.02
2022-10-06T08:56:54.467Z,101621.63
2022-10-06T08:59:26.258Z,101625.30
2022-10-06T09:01:59.817Z,101628.42
2022-10-06T09:04:35.256Z,101629.04
2022-10-06T09:07:18.027Z,101640.29
2022-10-06T09:10:21.689Z,101645.27
2022-10-06T09:12:58.635Z,101642.73
2022-10-06T09:15:39.363Z,101644.25
2022-10-06T09:18:11.543Z,101652.29
2022-10-06T09:20:52.531Z,101646.27
2022-10-06T09:23:42.783Z,101650.14
2022-10-06T09:26:17.375Z,101656.11
2022-10-06T09:28:48.973Z,101659.88
2022-10-06T09:31:27.329Z,101661.68
2022-10-06T09:34:05.540Z,101666.04
2022-10-06T09:37:10.452Z,101672.17
2022-10-06T09:39:43.933Z,101679.25
2022-10-06T09:42:21.068Z,101686.02
2022-10-06T09:45:05.923Z,101693.61
2022-10-06T09:47:41.071Z,101699.46
2022-10-06T09:50:24.687Z,101706.58
2022-10-06T09:53:16.300Z,101709.04
2022-10-06T09:55:54.930Z,101715.27
2022-10-06T09:58:34.390Z,101728.63
2022-10-06T10:01:09.764Z,101731.95
2022-10-06T10:06:43.687Z,101738.25
2022-10-06T10:09:25.639Z,101748.17
2022-10-06T10:12:27.322Z,101752.72
2022-10-06T10:15:03.304Z,101755.98
2022-10-06T10:17:45.858Z,101760.74
2022-10-06T10:20:31.067Z,101763.93
2022-10-06T10:23:05.562Z,101764.23
2022-10-06T10:25:52.044Z,101771.23
2022-10-06T10:28:50.943Z,101775.11
2022-10-06T10:31:32.976Z,101784.44
2022-10-06T10:34:24.015Z,101785.77
2022-10-06T10:37:03.568Z,101790.39
2022-10-06T10:39:41.328Z,101791.86
2022-10-06T10:42:21.140Z,101792.80
2022-10-06T10:44:58.358Z,101798.21
2022-10-06T10:47:35.439Z,101796.61
2022-10-06T10:50:17.345Z,101796.34
2022-10-06T10:52:59.363Z,101798.80
2022-10-06T10:55:37.092Z,101796.28
2022-10-06T10:58:18.791Z,101799.65
2022-10-06T11:00:56.494Z,101794.76
2022-10-06T11:03:29.014Z,101803.98
2022-10-06T11:06:22.359Z,101801.98
2022-10-06T11:09:02.728Z,101805.15
2022-10-06T11:11:49.966Z,101804.05
2022-10-06T11:14:36.003Z,101809.85
2022-10-06T11:17:19.802Z,101813.20
2022-10-06T11:19:58.901Z,101815.23
2022-10-06T11:22:44.301Z,101814.23
2022-10-06T11:25:34.227Z,101807.27
2022-10-06T11:28:19.848Z,101815.59
2022-10-06T11:31:06.253Z,101829.39
2022-10-06T11:33:47.565Z,101830.61
2022-10-06T11:36:29.498Z,101828.13
2022-10-06T11:39:09.343Z,101821.95
2022-10-06T11:41:44.547Z,101820.98
2022-10-06T11:44:23.864Z,101827.05
2022-10-06T11:46:59.815Z,101830.31
2022-10-06T11:49:58.617Z,101829.52
2022-10-06T11:52:48.329Z,101833.97
2022-10-06T11:55:26.470Z,101839.79
2022-10-06T11:58:41.501Z,101841.91
2022-10-06T12:01:08.506Z,101839.88
2022-10-06T12:04:13.530Z,101839.38
2022-10-06T12:10:53.105Z,101846.84
2022-10-06T12:14:26.642Z,101848.02
2022-10-06T12:17:05.629Z,101849.71
2022-10-06T12:19:44.135Z,101854.69
2022-10-06T12:22:25.727Z,101857.83
2022-10-06T12:25:04.130Z,101860.24
2022-10-06T12:27:59.240Z,101855.68
2022-10-06T12:30:43.546Z,101858.18
2022-10-06T12:33:36.344Z,101859.30
2022-10-06T12:36:38.398Z,101858.84
2022-10-06T12:39:25.814Z,101865.36
2022-10-06T12:42:02.026Z,101873.55
2022-10-06T12:44:38.529Z,101876.63
2022-10-06T12:47:16.941Z,101875.95
2022-10-06T12:49:53.945Z,101879.00
2022-10-06T12:52:44.622Z,101875.48
2022-10-06T12:55:36.007Z,101878.69
2022-10-06T12:58:17.073Z,101878.79
2022-10-06T13:00:50.222Z,101888.90
2022-10-06T13:03:26.261Z,101888.49
2022-10-06T13:06:00.117Z,101889.29
2022-10-06T13:08:32.855Z,101887.23
2022-10-06T13:11:25.023Z,101892.66
2022-10-06T13:13:58.634Z,101897.00
2022-10-06T13:16:33.009Z,101898.16
2022-10-06T13:19:04.790Z,101904.30
2022-10-06T13:21:38.190Z,101906.57
2022-10-06T13:24:13.813Z,101906.88
2022-10-06T13:26:49.668Z,101912.96
2022-10-06T13:29:27.602Z,101916.01
2022-10-06T13:31:59.229Z,101919.80
2022-10-06T13:34:34.850Z,101919.13
2022-10-06T13:37:06.637Z,101917.66
2022-10-06T13:39:38.522Z,101919.38
2022-10-06T13:42:18.625Z,101918.70
2022-10-06T13:44:56.584Z,101921.73
2022-10-06T13:47:30.386Z,101930.81
2022-10-06T13:50:05.867Z,101930.66
2022-10-06T13:52:40.054Z,101928.33
2022-10-06T13:55:21.892Z,101927.66
2022-10-06T13:58:09.298Z,101929.05
2022-10-06T14:00:54.609Z,101928.20
2022-10-06T14:03:29.433Z,101930.34
2022-10-06T14:06:16.032Z,101929.99
2022-10-06T14:08:51.340Z,101934.56
2022-10-06T14:11:28.331Z,101935.09
2022-10-06T14:14:02.252Z,101932.66
2022-10-06T14:16:34.179Z,101933.14
2022-10-06T14:19:07.380Z,101937.02
2022-10-06T14:21:42.013Z,101938.23
2022-10-06T14:24:27.041Z,101940.76
2022-10-06T14:27:04.891Z,101939.23
2022-10-06T14:29:38.907Z,101943.02
2022-10-06T14:32:14.713Z,101940.73
2022-10-06T14:34:47.154Z,101944.98
2022-10-06T14:37:18.700Z,101946.16
2022-10-06T14:39:54.897Z,101948.19
2022-10-06T14:42:26.534Z,101951.60
2022-10-06T14:44:58.269Z,101953.15
2022-10-06T14:47:31.707Z,101954.90
2022-10-06T14:50:03.535Z,101952.80
2022-10-06T14:52:35.081Z,101957.00
2022-10-06T14:55:10.435Z,101959.23
2022-10-06T14:57:42.227Z,101962.56
2022-10-06T15:00:21.985Z,101968.26
2022-10-06T15:02:53.584Z,101969.27
2022-10-06T15:05:26.425Z,101972.98
2022-10-06T15:08:13.071Z,101970.67
2022-10-06T15:10:53.867Z,101973.20
2022-10-06T15:13:24.184Z,101978.75
2022-10-06T15:16:02.597Z,101983.13
2022-10-06T15:18:38.426Z,101983.70
2022-10-06T15:21:14.037Z,101984.05
2022-10-06T15:23:46.278Z,101982.02
2022-10-06T15:26:35.149Z,101985.83
2022-10-06T15:29:07.042Z,101985.62
2022-10-06T15:31:40.501Z,101990.61
2022-10-06T15:34:14.143Z,101991.94
2022-10-06T15:36:45.794Z,101993.33
2022-10-06T15:39:19.528Z,101995.52
2022-10-06T15:41:52.452Z,101998.39
2022-10-06T15:44:24.273Z,101995.46
2022-10-06T15:46:57.489Z,101994.34
2022-10-06T15:49:30.474Z,101995.29
2022-10-06T15:52:04.895Z,101995.94
2022-10-06T15:54:38.573Z,102005.22
2022-10-06T15:57:15.041Z,102004.05
2022-10-06T15:59:48.343Z,102008.68
2022-10-06T16:02:21.901Z,102012.73
2022-10-06T16:05:17.220Z,102010.90
2022-10-06T16:07:48.841Z,102011.54
2022-10-06T16:10:23.842Z,102013.85
2022-10-06T16:12:55.693Z,102015.98
2022-10-06T16:15:27.264Z,102018.45
2022-10-06T16:17:58.831Z,102018.02
2022-10-06T16:20:38.803Z,102020.02
2022-10-06T16:23:11.257Z,102024.95
2022-10-06T16:25:42.821Z,102025.45
2022-10-06T16:28:15.790Z,102030.99
2022-10-06T16:30:56.639Z,102033.30
2022-10-06T16:33:28.297Z,102034.80
2022-10-06T16:36:00.503Z,102040.94
2022-10-06T16:38:32.194Z,102043.97
2022-10-06T16:41:05.178Z,102045.55
2022-10-06T16:43:38.977Z,102049.43
2022-10-06T16:46:12.786Z,102047.09
2022-10-06T16:48:46.349Z,102051.78
2022-10-06T16:51:19.750Z,102060.08
2022-10-06T16:53:53.181Z,102062.50
2022-10-06T16:56:27.038Z,102067.11
2022-10-06T16:59:00.323Z,102074.84
2022-10-06T17:01:34.618Z,102078.04
2022-10-06T17:04:07.996Z,102080.40
2022-10-06T17:06:40.744Z,102080.70
2022-10-06T17:09:14.483Z,102086.79
2022-10-06T17:11:48.360Z,102084.55
2022-10-06T17:14:21.393Z,102083.85
2022-10-06T17:16:56.018Z,102083.95
2022-10-06T17:19:29.897Z,102087.48
2022-10-06T17:22:01.505Z,102084.16
2022-10-06T17:24:39.618Z,102088.15
2022-10-06T17:27:11.492Z,102092.77
2022-10-06T17:29:44.743Z,102092.65
2022-10-06T17:32:16.778Z,102090.10
2022-10-06T17:34:48.361Z,102088.16
2022-10-06T17:37:21.882Z,102088.05
2022-10-06T17:39:53.471Z,102086.45
2022-10-06T17:42:25.183Z,102086.14
2022-10-06T17:44:56.866Z,102085.21
2022-10-06T17:47:29.432Z,102090.29
2022-10-06T17:50:00.986Z,102087.88
2022-10-06T17:52:38.796Z,102090.77
2022-10-06T17:55:11.676Z,102097.80
2022-10-06T17:57:43.178Z,102102.23
2022-10-06T18:00:21.553Z,102104.60
2022-10-06T18:03:00.421Z,102107.69
2022-10-06T18:05:33.165Z,102106.42
2022-10-06T18:08:05.585Z,102108.40
2022-10-06T18:10:59.113Z,102107.38
2022-10-06T18:13:32.234Z,102106.83
2022-10-06T18:16:04.075Z,102104.63
2022-10-06T18:18:35.707Z,102107.21
2022-10-06T18:21:09.659Z,102109.31
2022-10-06T18:23:42.831Z,102110.57
2022-10-06T18:26:17.794Z,102114.95
2022-10-06T18:28:50.913Z,102111.87
2022-10-06T18:31:22.606Z,102113.15
2022-10-06T18:36:46.786Z,102112.86
2022-10-06T18:39:18.359Z,102116.05
2022-10-06T18:41:51.216Z,102111.51
2022-10-06T18:44:36.678Z,102111.61
2022-10-06T18:47:26.045Z,102112.34
2022-10-06T18:49:58.398Z,102114.56
2022-10-06T18:52:30.041Z,102118.41
2022-10-06T18:55:01.599Z,102118.63
2022-10-06T18:57:33.520Z,102121.80
2022-10-06T19:00:05.414Z,102126.46
2022-10-06T19:02:44.916Z,102131.28
2022-10-06T19:05:19.978Z,102135.29
2022-10-06T19:07:53.000Z,102138.29
2022-10-06T19:10:24.717Z,102137.58
2022-10-06T19:12:58.361Z,102138.00
2022-10-06T19:15:30.134Z,102140.02
2022-10-06T19:18:01.972Z,102141.46
2022-10-06T19:20:33.735Z,102142.23
2022-10-06T19:23:06.408Z,102144.77
2022-10-06T19:25:38.415Z,102141.11
2022-10-06T19:28:10.311Z,102141.78
2022-10-06T19:30:42.204Z,102143.73
2022-10-06T19:33:14.165Z,102147.49
2022-10-06T19:35:55.378Z,102148.63
2022-10-06T19:38:28.199Z,102157.27
2022-10-06T19:41:19.701Z,102164.04
2022-10-06T19:43:51.510Z,102163.05
2022-10-06T19:46:23.154Z,102164.84
2022-10-06T19:48:56.704Z,102164.20
2022-10-06T19:51:28.291Z,102164.81
2022-10-06T19:54:00.092Z,102170.82
2022-10-06T19:56:33.236Z,102170.13
2022-10-06T19:59:05.763Z,102171.11
2022-10-06T20:01:37.389Z,102176.00
2022-10-06T20:04:09.788Z,102175.80
2022-10-06T20:06:42.575Z,102181.80
2022-10-06T20:09:19.132Z,102181.56
2022-10-06T20:11:51.769Z,102185.83
2022-10-06T20:14:25.555Z,102184.04
2022-10-06T20:16:58.753Z,102184.60
2022-10-06T20:19:31.162Z,102186.54
2022-10-06T20:22:02.959Z,102184.23
2022-10-06T20:24:35.352Z,102182.04
2022-10-06T20:27:07.011Z,102182.98
2022-10-06T20:29:38.608Z,102185.91
2022-10-06T20:32:10.198Z,102184.96
2022-10-06T20:34:42.915Z,102185.13
2022-10-06T20:37:14.488Z,102183.80
2022-10-06T20:40:03.667Z,102184.33
2022-10-06T20:42:35.294Z,102187.51
2022-10-06T20:45:09.583Z,102191.75
2022-10-06T20:47:41.574Z,102193.61
2022-10-06T20:50:21.291Z,102190.44
2022-10-06T20:52:53.422Z,102191.23
2022-10-06T20:55:24.977Z,102194.03
2022-10-06T20:57:57.238Z,102196.98
2022-10-06T21:00:31.330Z,102195.62
2022-10-06T21:03:03.021Z,102193.36
2022-10-06T21:05:34.747Z,102191.27
2022-10-06T21:08:06.376Z,102191.83
2022-10-06T21:10:40.525Z,102191.86
2022-10-06T21:13:12.226Z,102189.35
2022-10-06T21:15:47.206Z,102190.07
2022-10-06T21:18:18.920Z,102189.64
2022-10-06T21:21:02.189Z,102194.05
2022-10-06T21:23:38.894Z,102197.20
2022-10-06T21:26:12.603Z,102195.19
2022-10-06T21:28:44.305Z,102191.67
2022-10-06T21:31:19.479Z,102188.75
2022-10-06T21:33:52.125Z,102185.91
2022-10-06T21:36:25.912Z,102185.55
2022-10-06T21:38:59.094Z,102182.22
2022-10-06T21:41:35.924Z,102185.04
2022-10-06T21:44:09.435Z,102186.77
2022-10-06T21:46:43.545Z,102185.03
2022-10-06T21:49:16.552Z,102185.64
2022-10-06T21:51:52.479Z,102188.21
2022-10-06T21:54:24.827Z,102190.10
2022-10-06T21:56:56.437Z,102191.67
2022-10-06T21:59:28.258Z,102196.36
2022-10-06T22:02:01.595Z,102197.06
2022-10-06T22:04:33.473Z,102193.84
2022-10-06T22:07:05.242Z,102189.88
2022-10-06T22:09:36.793Z,102185.20
2022-10-06T22:12:08.522Z,102186.66
2022-10-06T22:14:40.112Z,102186.76
2022-10-06T22:17:12.554Z,102184.36
2022-10-06T22:19:44.207Z,102185.85
2022-10-06T22:22:17.602Z,102179.10
2022-10-06T22:24:49.164Z,102185.18
2022-10-06T22:27:20.901Z,102185.80
2022-10-06T22:29:52.522Z,102181.73
2022-10-06T22:32:25.982Z,102186.75
2022-10-06T22:34:57.655Z,102184.09
2022-10-06T22:37:29.383Z,102185.70
2022-10-06T22:40:05.379Z,102183.32
2022-10-06T22:42:42.848Z,102178.77
2022-10-06T22:45:14.617Z,102178.33
2022-10-06T22:47:46.538Z,102180.12
2022-10-06T22:50:20.905Z,102181.73
2022-10-06T22:52:53.456Z,102178.30
2022-10-06T22:55:25.074Z,102177.34
2022-10-06T22:57:56.671Z,102179.20
2022-10-06T23:00:29.042Z,102175.91
2022-10-06T23:03:01.836Z,102177.27
2022-10-06T23:05:34.081Z,102175.81
2022-10-06T23:08:08.720Z,102177.68
2022-10-06T23:10:40.322Z,102181.85
2022-10-06T23:13:15.230Z,102172.64
2022-10-06T23:15:47.005Z,102174.52
2022-10-06T23:18:18.634Z,102176.52
2022-10-06T23:20:50.316Z,102177.38
2022-10-06T23:23:23.550Z,102178.19
2022-10-06T23:25:55.078Z,102174.52
2022-10-06T23:28:26.740Z,102175.00
2022-10-06T23:30:58.425Z,102173.16
2022-10-06T23:33:33.009Z,102176.18
2022-10-06T23:36:06.515Z,102176.90
2022-10-06T23:38:39.092Z,102174.02
2022-10-06T23:41:10.699Z,102175.86
2022-10-06T23:43:44.095Z,102170.63
2022-10-06T23:46:16.216Z,102171.60
2022-10-06T23:48:47.904Z,102171.42
2022-10-06T23:51:19.636Z,102172.58
2022-10-06T23:53:53.024Z,102170.72
2022-10-06T23:56:25.576Z,102170.39
2022-10-06T23:58:57.232Z,102178.89
